createdAt,value
2022-10-22T00:02:25.945Z,0.80
2022-10-22T00:04:52.260Z,0.83
2022-10-22T00:07:19.365Z,0.70
2022-10-22T00:09:46.380Z,0.77
2022-10-22T00:12:13.967Z,0.60
2022-10-22T00:14:40.669Z,0.80
2022-10-22T00:17:10.533Z,0.67
2022-10-22T00:19:37.811Z,0.57
2022-10-22T00:22:05.708Z,0.75
2022-10-22T00:24:33.122Z,0.57
2022-10-22T00:26:59.471Z,0.80
2022-10-22T00:29:25.884Z,0.60
2022-10-22T00:31:52.329Z,0.70
2022-10-22T00:34:21.125Z,0.65
2022-10-22T00:36:48.391Z,0.40
2022-10-22T00:39:16.243Z,0.60
2022-10-22T00:41:48.401Z,0.73
2022-10-22T00:44:51.988Z,0.88
2022-10-22T00:47:19.621Z,0.60
2022-10-22T00:49:46.781Z,0.70
2022-10-22T00:52:14.233Z,0.50
2022-10-22T00:54:42.199Z,0.83
2022-10-22T00:57:09.300Z,0.60
2022-10-22T00:59:37.296Z,0.60
2022-10-22T01:02:04.106Z,0.68
2022-10-22T01:04:30.539Z,0.60
2022-10-22T01:06:56.947Z,0.50
2022-10-22T01:09:46.669Z,0.50
2022-10-22T01:12:21.827Z,0.90
2022-10-22T01:14:53.980Z,0.43
2022-10-22T01:17:50.948Z,0.40
2022-10-22T01:20:48.511Z,0.70
2022-10-22T01:23:29.629Z,1.02
2022-10-22T01:26:17.687Z,0.40
2022-10-22T01:29:10.671Z,0.60
2022-10-22T01:31:41.377Z,0.60
2022-10-22T01:34:10.604Z,0.60
2022-10-22T01:36:38.495Z,0.60
2022-10-22T01:39:05.784Z,0.70
2022-10-22T01:41:32.232Z,0.52
2022-10-22T01:43:58.554Z,0.50
2022-10-22T01:46:28.060Z,0.63
2022-10-22T01:49:26.872Z,0.50
2022-10-22T01:52:15.939Z,0.60
2022-10-22T01:55:10.254Z,0.60
2022-10-22T01:57:48.597Z,0.80
2022-10-22T02:00:18.766Z,0.50
2022-10-22T02:03:01.602Z,0.80
2022-10-22T02:05:41.603Z,0.50
2022-10-22T02:08:11.282Z,0.60
2022-10-22T02:10:40.519Z,0.55
2022-10-22T02:13:14.335Z,0.63
2022-10-22T02:15:44.544Z,0.57
2022-10-22T02:18:11.738Z,0.50
2022-10-22T02:20:40.987Z,0.50
2022-10-22T02:23:08.427Z,0.68
2022-10-22T02:25:38.380Z,0.60
2022-10-22T02:28:10.663Z,0.50
2022-10-22T02:30:40.110Z,0.47
2022-10-22T02:33:16.790Z,0.47
2022-10-22T02:35:44.843Z,0.40
2022-10-22T02:38:13.379Z,0.70
2022-10-22T02:40:39.987Z,0.20
2022-10-22T02:43:06.328Z,0.50
2022-10-22T02:45:33.774Z,0.63
2022-10-22T02:48:00.157Z,0.40
2022-10-22T02:50:26.581Z,0.80
2022-10-22T02:52:52.867Z,0.50
2022-10-22T02:55:19.371Z,0.50
2022-10-22T02:57:45.687Z,0.60
2022-10-22T03:00:12.525Z,0.45
2022-10-22T03:02:38.866Z,0.60
2022-10-22T03:05:05.894Z,0.40
2022-10-22T03:07:32.807Z,0.57
2022-10-22T03:09:59.151Z,0.70
2022-10-22T03:12:25.600Z,0.47
2022-10-22T03:14:51.907Z,0.60
2022-10-22T03:17:18.296Z,0.50
2022-10-22T03:19:44.635Z,0.50
2022-10-22T03:22:20.571Z,0.55
2022-10-22T03:24:50.771Z,0.73
2022-10-22T03:27:19.963Z,0.40
2022-10-22T03:29:47.008Z,0.52
2022-10-22T03:32:13.966Z,0.50
2022-10-22T03:34:40.340Z,0.57
2022-10-22T03:37:06.805Z,0.30
2022-10-22T03:39:35.250Z,0.37
2022-10-22T03:42:02.451Z,0.50
2022-10-22T03:44:30.031Z,0.75
2022-10-22T03:46:58.786Z,0.50
2022-10-22T03:49:28.030Z,0.50
2022-10-22T03:51:54.347Z,0.50
2022-10-22T03:54:20.702Z,0.60
2022-10-22T03:56:47.034Z,0.43
2022-10-22T03:59:13.498Z,0.50
2022-10-22T04:01:39.840Z,0.40
2022-10-22T04:04:06.186Z,0.50
2022-10-22T04:06:32.550Z,0.50
2022-10-22T04:08:59.217Z,0.60
2022-10-22T04:11:25.585Z,0.90
2022-10-22T04:13:51.891Z,0.60
2022-10-22T04:16:20.979Z,0.40
2022-10-22T04:18:49.003Z,0.47
2022-10-22T04:21:17.919Z,0.40
2022-10-22T04:23:48.686Z,0.40
2022-10-22T04:26:16.562Z,0.57
2022-10-22T04:28:43.475Z,0.50
2022-10-22T04:31:11.976Z,0.52
2022-10-22T04:33:38.784Z,0.40
2022-10-22T04:36:12.974Z,0.47
2022-10-22T04:38:40.143Z,0.40
2022-10-22T04:41:15.431Z,0.50
2022-10-22T04:43:42.660Z,0.68
2022-10-22T04:46:09.886Z,0.60
2022-10-22T04:48:37.539Z,0.60
2022-10-22T04:51:05.055Z,0.40
2022-10-22T04:53:31.380Z,0.50
2022-10-22T04:56:11.269Z,0.60
2022-10-22T04:58:38.036Z,0.43
2022-10-22T05:01:15.000Z,0.60
2022-10-22T05:03:41.718Z,0.50
2022-10-22T05:06:08.972Z,0.60
2022-10-22T05:08:35.516Z,0.57
2022-10-22T05:11:09.655Z,0.50
2022-10-22T05:13:35.960Z,0.70
2022-10-22T05:16:02.306Z,0.50
2022-10-22T05:18:28.610Z,0.40
2022-10-22T05:20:54.912Z,0.50
2022-10-22T05:23:21.308Z,0.60
2022-10-22T05:25:47.641Z,0.50
2022-10-22T05:28:13.948Z,0.60
2022-10-22T05:30:40.265Z,0.50
2022-10-22T05:33:06.603Z,0.60
2022-10-22T05:35:32.910Z,0.70
2022-10-22T05:37:59.216Z,0.50
2022-10-22T05:40:31.221Z,0.45
2022-10-22T05:42:58.613Z,0.50
2022-10-22T05:45:24.942Z,0.82
2022-10-22T05:47:51.261Z,0.63
2022-10-22T05:50:17.593Z,0.50
2022-10-22T05:52:43.994Z,0.60
2022-10-22T05:55:10.414Z,0.60
2022-10-22T05:57:36.716Z,0.40
2022-10-22T06:00:03.832Z,0.45
2022-10-22T06:02:30.228Z,0.45
2022-10-22T06:04:56.705Z,0.73
2022-10-22T06:07:23.235Z,0.60
2022-10-22T06:09:50.245Z,0.60
2022-10-22T06:12:16.720Z,0.60
2022-10-22T06:14:43.132Z,0.68
2022-10-22T06:17:09.482Z,0.50
2022-10-22T06:19:36.328Z,1.07
2022-10-22T06:22:03.816Z,0.60
2022-10-22T06:24:30.627Z,0.50
2022-10-22T06:26:56.946Z,0.60
2022-10-22T06:29:23.416Z,0.93
2022-10-22T06:31:49.729Z,0.70
2022-10-22T06:34:18.684Z,0.80
2022-10-22T06:36:46.284Z,0.63
2022-10-22T06:39:14.934Z,0.50
2022-10-22T06:41:41.808Z,0.80
2022-10-22T06:44:13.864Z,0.70
2022-10-22T06:46:43.389Z,0.60
2022-10-22T06:49:13.501Z,0.50
2022-10-22T06:51:40.008Z,0.43
2022-10-22T06:54:06.330Z,0.60
2022-10-22T06:56:32.716Z,0.50
2022-10-22T06:58:59.190Z,0.60
2022-10-22T07:01:28.676Z,0.50
2022-10-22T07:03:55.614Z,0.68
2022-10-22T07:06:23.921Z,0.50
2022-10-22T07:08:50.751Z,0.60
2022-10-22T07:11:25.177Z,0.40
2022-10-22T07:13:54.102Z,0.50
2022-10-22T07:16:20.572Z,0.68
2022-10-22T07:18:47.596Z,0.40
2022-10-22T07:21:17.187Z,0.50
2022-10-22T07:23:43.932Z,0.50
2022-10-22T07:26:13.136Z,0.60
2022-10-22T07:28:40.962Z,0.75
2022-10-22T07:31:09.841Z,0.45
2022-10-22T07:33:37.426Z,0.60
2022-10-22T07:36:07.225Z,0.70
2022-10-22T07:38:34.959Z,0.45
2022-10-22T07:41:01.652Z,0.63
2022-10-22T07:43:28.135Z,0.50
2022-10-22T07:45:55.857Z,0.37
2022-10-22T07:48:23.539Z,0.47
2022-10-22T07:50:51.022Z,0.40
2022-10-22T07:53:17.743Z,0.50
2022-10-22T07:55:44.123Z,0.50
2022-10-22T07:58:10.426Z,0.60
2022-10-22T08:00:37.579Z,0.60
2022-10-22T08:03:04.336Z,0.38
2022-10-22T08:05:30.666Z,0.57
2022-10-22T08:07:56.990Z,0.80
2022-10-22T08:10:23.330Z,0.40
2022-10-22T08:12:49.639Z,0.60
2022-10-22T08:15:16.120Z,0.60
2022-10-22T08:17:42.698Z,0.50
2022-10-22T08:20:09.678Z,0.40
2022-10-22T08:22:36.224Z,0.47
2022-10-22T08:25:02.552Z,0.40
2022-10-22T08:27:28.878Z,0.50
2022-10-22T08:29:55.247Z,0.68
2022-10-22T08:32:21.591Z,0.35
2022-10-22T08:34:47.940Z,1.10
2022-10-22T08:37:14.365Z,0.30
2022-10-22T08:39:41.374Z,0.45
2022-10-22T08:42:35.687Z,0.40
2022-10-22T08:45:25.296Z,0.43
2022-10-22T08:48:17.896Z,0.60
2022-10-22T08:50:47.418Z,0.47
2022-10-22T08:53:17.323Z,0.60
2022-10-22T08:55:44.492Z,0.50
2022-10-22T08:58:38.183Z,0.70
2022-10-22T09:01:42.831Z,0.43
2022-10-22T09:04:28.623Z,0.40
2022-10-22T09:06:57.545Z,0.30
2022-10-22T09:09:27.651Z,0.50
2022-10-22T09:11:57.272Z,0.60
2022-10-22T09:14:25.583Z,0.50
2022-10-22T09:17:13.360Z,0.60
2022-10-22T09:20:07.249Z,0.30
2022-10-22T09:22:58.571Z,0.45
2022-10-22T09:25:30.949Z,0.90
2022-10-22T09:28:00.136Z,0.40
2022-10-22T09:30:29.645Z,0.30
2022-10-22T09:33:09.246Z,0.30
2022-10-22T09:35:55.841Z,0.40
2022-10-22T09:38:28.356Z,0.40
2022-10-22T09:40:57.939Z,0.50
2022-10-22T09:43:24.804Z,0.40
2022-10-22T09:46:00.187Z,0.20
2022-10-22T09:48:32.109Z,0.30
2022-10-22T09:51:21.795Z,0.30
2022-10-22T09:53:57.221Z,0.50
2022-10-22T09:56:36.755Z,0.40
2022-10-22T09:59:03.706Z,0.30
2022-10-22T10:01:35.483Z,0.40
2022-10-22T10:04:09.798Z,1.00
2022-10-22T10:06:41.105Z,0.40
2022-10-22T10:09:27.828Z,0.40
2022-10-22T10:12:09.519Z,0.47
2022-10-22T10:14:54.104Z,1.42
2022-10-22T10:17:45.109Z,0.40
2022-10-22T10:20:26.950Z,0.70
2022-10-22T10:23:14.887Z,0.40
2022-10-22T10:26:13.698Z,0.50
2022-10-22T10:29:17.311Z,0.40
2022-10-22T10:32:21.078Z,0.75
2022-10-22T10:35:00.862Z,0.73
2022-10-22T10:37:40.743Z,0.68
2022-10-22T10:40:44.780Z,0.38
2022-10-22T10:43:20.431Z,0.47
2022-10-22T10:45:57.069Z,0.40
2022-10-22T10:48:52.680Z,0.43
2022-10-22T10:51:47.428Z,0.30
2022-10-22T10:54:41.469Z,0.40
2022-10-22T10:57:31.683Z,0.30
2022-10-22T11:00:14.068Z,0.32
2022-10-22T11:03:25.592Z,0.30
2022-10-22T11:05:55.685Z,0.43
2022-10-22T11:08:27.040Z,0.50
2022-10-22T11:11:18.316Z,0.40
2022-10-22T11:14:09.995Z,0.30
2022-10-22T11:17:01.772Z,0.40
2022-10-22T11:19:53.719Z,0.40
2022-10-22T11:22:27.575Z,0.30
2022-10-22T11:25:02.889Z,0.30
2022-10-22T11:27:39.263Z,0.40
2022-10-22T11:30:13.024Z,0.47
2022-10-22T11:32:42.735Z,0.40
2022-10-22T11:35:15.782Z,0.32
2022-10-22T11:37:45.372Z,0.40
2022-10-22T11:40:19.724Z,0.30
2022-10-22T11:42:58.471Z,0.57
2022-10-22T11:45:24.731Z,0.60
2022-10-22T11:47:58.868Z,0.40
2022-10-22T11:50:47.033Z,0.40
2022-10-22T11:53:13.324Z,0.40
2022-10-22T11:56:21.004Z,0.43
2022-10-22T11:58:50.844Z,0.60
2022-10-22T12:01:41.558Z,0.20
2022-10-22T12:04:22.572Z,0.43
2022-10-22T12:07:00.708Z,0.25
2022-10-22T12:09:30.256Z,0.37
2022-10-22T12:12:10.895Z,0.40
2022-10-22T12:14:58.183Z,0.40
2022-10-22T12:17:25.727Z,0.20
2022-10-22T12:20:02.463Z,0.40
2022-10-22T12:22:32.021Z,0.30
2022-10-22T12:25:02.339Z,0.20
2022-10-22T12:27:37.944Z,0.50
2022-10-22T12:30:19.551Z,0.32
2022-10-22T12:32:46.070Z,0.40
2022-10-22T12:35:21.854Z,0.40
2022-10-22T12:38:15.248Z,0.40
2022-10-22T12:40:45.882Z,0.30
2022-10-22T12:43:20.371Z,0.32
2022-10-22T12:45:49.301Z,0.63
2022-10-22T12:48:15.577Z,0.30
2022-10-22T12:50:46.031Z,0.30
2022-10-22T12:53:32.369Z,0.30
2022-10-22T12:56:05.412Z,0.40
2022-10-22T12:58:48.244Z,0.40
2022-10-22T13:01:17.840Z,0.30
2022-10-22T13:03:50.464Z,0.30
2022-10-22T13:06:19.807Z,0.30
2022-10-22T13:09:01.473Z,0.30
2022-10-22T13:11:38.583Z,0.30
2022-10-22T13:14:15.581Z,0.30
2022-10-22T13:16:41.887Z,0.40
2022-10-22T13:19:37.239Z,0.32
2022-10-22T13:22:03.614Z,0.40
2022-10-22T13:24:30.943Z,0.38
2022-10-22T13:26:57.427Z,0.37
2022-10-22T13:29:24.771Z,0.30
2022-10-22T13:31:53.839Z,0.30
2022-10-22T13:34:22.422Z,0.38
2022-10-22T13:36:49.832Z,0.40
2022-10-22T13:39:23.416Z,0.30
2022-10-22T13:41:50.856Z,0.30
2022-10-22T13:44:18.467Z,0.30
2022-10-22T13:46:45.970Z,0.38
2022-10-22T13:49:23.284Z,0.43
2022-10-22T13:51:50.787Z,0.40
2022-10-22T13:54:22.452Z,0.40
2022-10-22T13:56:48.931Z,0.30
2022-10-22T13:59:17.270Z,0.50
2022-10-22T14:01:46.298Z,0.30
2022-10-22T14:04:15.189Z,0.43
2022-10-22T14:06:41.542Z,0.30
2022-10-22T14:09:13.395Z,0.40
2022-10-22T14:11:39.728Z,0.30
2022-10-22T14:14:08.788Z,0.32
2022-10-22T14:16:37.272Z,0.30
2022-10-22T14:19:04.652Z,0.40
2022-10-22T14:21:36.772Z,0.40
2022-10-22T14:24:03.383Z,0.20
2022-10-22T14:26:33.063Z,0.55
2022-10-22T14:29:11.433Z,0.33
2022-10-22T14:34:06.728Z,0.40
2022-10-22T14:36:33.048Z,0.40
2022-10-22T14:38:59.355Z,0.30
2022-10-22T14:41:28.632Z,0.60
2022-10-22T14:43:55.730Z,0.30
2022-10-22T14:46:22.602Z,0.32
2022-10-22T14:48:48.953Z,0.43
2022-10-22T14:51:18.047Z,0.13
2022-10-22T14:53:45.083Z,0.30
2022-10-22T14:56:14.702Z,0.40
2022-10-22T14:58:41.228Z,0.75
2022-10-22T15:01:09.020Z,0.40
2022-10-22T15:03:36.000Z,0.30
2022-10-22T15:06:02.574Z,0.30
2022-10-22T15:08:29.795Z,0.40
2022-10-22T15:11:01.240Z,0.43
2022-10-22T15:13:29.040Z,0.52
2022-10-22T15:15:56.119Z,0.30
2022-10-22T15:18:23.344Z,0.40
2022-10-22T15:20:56.648Z,0.43
2022-10-22T15:23:23.000Z,0.32
2022-10-22T15:25:49.356Z,0.43
2022-10-22T15:28:15.739Z,0.30
2022-10-22T15:30:42.041Z,0.30
2022-10-22T15:33:08.663Z,0.30
2022-10-22T15:35:35.066Z,0.40
2022-10-22T15:38:01.478Z,0.68
2022-10-22T15:40:27.849Z,0.30
2022-10-22T15:42:54.188Z,0.23
2022-10-22T15:45:24.923Z,0.40
2022-10-22T15:47:51.303Z,0.30
2022-10-22T15:50:17.716Z,0.30
2022-10-22T15:52:44.130Z,0.40
2022-10-22T15:55:10.580Z,0.30
2022-10-22T15:57:37.837Z,0.50
2022-10-22T16:00:06.060Z,0.30
2022-10-22T16:02:32.458Z,0.40
2022-10-22T16:04:58.823Z,0.40
2022-10-22T16:07:26.322Z,0.50
2022-10-22T16:09:57.672Z,0.40
2022-10-22T16:12:24.059Z,0.40
2022-10-22T16:14:50.958Z,0.30
2022-10-22T16:17:17.599Z,0.70
2022-10-22T16:19:44.193Z,0.43
2022-10-22T16:22:13.627Z,0.50
2022-10-22T16:24:42.970Z,0.50
2022-10-22T16:27:09.656Z,0.30
2022-10-22T16:29:39.671Z,0.43
2022-10-22T16:32:06.508Z,0.40
2022-10-22T16:34:32.860Z,0.50
2022-10-22T16:36:59.163Z,0.40
2022-10-22T16:39:25.476Z,0.50
2022-10-22T16:41:51.851Z,0.40
2022-10-22T16:44:18.218Z,0.30
2022-10-22T16:46:44.559Z,0.38
2022-10-22T16:49:11.023Z,0.40
2022-10-22T16:51:37.383Z,0.35
2022-10-22T16:54:06.779Z,0.38
2022-10-22T16:56:36.463Z,0.40
2022-10-22T16:59:02.842Z,0.30
2022-10-22T17:01:29.684Z,0.45
2022-10-22T17:03:59.206Z,0.30
2022-10-22T17:06:25.553Z,0.77
2022-10-22T17:08:51.979Z,0.30
2022-10-22T17:11:22.148Z,0.30
2022-10-22T17:13:51.140Z,0.32
2022-10-22T17:16:19.799Z,0.40
2022-10-22T17:21:14.407Z,0.40
2022-10-22T17:23:42.355Z,0.50
2022-10-22T17:26:13.638Z,0.68
2022-10-22T17:28:39.966Z,0.47
2022-10-22T17:31:09.081Z,0.40
2022-10-22T17:33:36.346Z,0.73
2022-10-22T17:36:08.868Z,0.40
2022-10-22T17:38:35.408Z,0.43
2022-10-22T17:41:04.193Z,0.40
2022-10-22T17:43:33.286Z,0.30
2022-10-22T17:46:14.130Z,0.50
2022-10-22T17:48:41.232Z,0.40
2022-10-22T17:51:08.866Z,0.50
2022-10-22T17:53:35.851Z,0.38
2022-10-22T17:56:03.750Z,0.43
2022-10-22T17:58:30.783Z,0.40
2022-10-22T18:00:57.673Z,0.50
2022-10-22T18:03:24.519Z,0.35
2022-10-22T18:05:50.860Z,0.40
2022-10-22T18:08:17.207Z,0.47
2022-10-22T18:10:43.580Z,0.50
2022-10-22T18:13:09.899Z,0.47
2022-10-22T18:15:36.377Z,0.50
2022-10-22T18:18:03.965Z,0.38
2022-10-22T18:20:30.808Z,0.60
2022-10-22T18:22:57.207Z,0.60
2022-10-22T18:25:23.547Z,0.70
2022-10-22T18:27:49.867Z,0.57
2022-10-22T18:30:16.301Z,0.52
2022-10-22T18:32:42.599Z,0.60
2022-10-22T18:35:09.031Z,0.53
2022-10-22T18:37:36.360Z,0.70
2022-10-22T18:40:03.475Z,0.45
2022-10-22T18:42:32.822Z,0.70
2022-10-22T18:45:00.928Z,0.50
2022-10-22T18:47:27.288Z,0.67
2022-10-22T18:49:53.588Z,0.60
2022-10-22T18:52:19.910Z,0.70
2022-10-22T18:54:46.252Z,0.55
2022-10-22T18:57:12.574Z,0.60
2022-10-22T18:59:38.876Z,0.63
2022-10-22T19:02:05.229Z,0.80
2022-10-22T19:04:36.594Z,0.70
2022-10-22T19:07:04.626Z,0.75
2022-10-22T19:09:31.022Z,0.75
2022-10-22T19:11:57.384Z,0.83
2022-10-22T19:14:23.791Z,0.88
2022-10-22T19:16:50.148Z,0.90
2022-10-22T19:19:19.361Z,1.05
2022-10-22T19:21:45.970Z,0.82
2022-10-22T19:24:14.811Z,0.70
2022-10-22T19:26:41.793Z,0.88
2022-10-22T19:29:08.231Z,0.95
2022-10-22T19:31:34.629Z,0.52
2022-10-22T19:34:02.140Z,0.80
2022-10-22T19:36:30.395Z,1.00
2022-10-22T19:38:57.843Z,0.80
2022-10-22T19:41:26.444Z,0.57
2022-10-22T19:43:54.497Z,1.02
2022-10-22T19:46:22.196Z,0.75
2022-10-22T19:48:49.659Z,1.00
2022-10-22T19:51:19.430Z,0.98
2022-10-22T19:53:46.859Z,0.95
2022-10-22T19:56:18.178Z,0.88
2022-10-22T19:58:45.366Z,1.00
2022-10-22T20:01:13.969Z,1.00
2022-10-22T20:03:41.317Z,0.75
2022-10-22T20:06:10.050Z,0.93
2022-10-22T20:08:40.672Z,0.90
2022-10-22T20:11:10.665Z,1.05
2022-10-22T20:16:09.388Z,0.93
2022-10-22T20:18:36.632Z,0.93
2022-10-22T20:21:04.872Z,0.98
2022-10-22T20:23:31.220Z,1.00
2022-10-22T20:25:57.552Z,0.90
2022-10-22T20:28:23.892Z,0.90
2022-10-22T20:30:50.245Z,1.05
2022-10-22T20:33:16.629Z,0.98
2022-10-22T20:35:43.253Z,1.13
2022-10-22T20:38:13.484Z,0.90
2022-10-22T20:40:39.806Z,1.13
2022-10-22T20:43:08.570Z,1.20
2022-10-22T20:45:36.899Z,1.15
2022-10-22T20:48:03.962Z,0.80
2022-10-22T20:50:33.590Z,0.90
2022-10-22T20:52:59.974Z,1.15
2022-10-22T20:55:27.571Z,1.13
2022-10-22T20:57:54.006Z,1.00
2022-10-22T21:00:20.665Z,1.00
2022-10-22T21:02:47.198Z,1.20
2022-10-22T21:05:13.604Z,1.02
2022-10-22T21:07:40.269Z,1.00
2022-10-22T21:10:07.347Z,1.25
2022-10-22T21:12:33.653Z,1.08
2022-10-22T21:14:59.988Z,1.23
2022-10-22T21:17:26.307Z,1.40
2022-10-22T21:19:52.616Z,1.15
2022-10-22T21:22:18.937Z,1.27
2022-10-22T21:24:45.448Z,1.08
2022-10-22T21:27:11.772Z,1.07
2022-10-22T21:29:38.071Z,1.42
2022-10-22T21:32:04.532Z,1.00
2022-10-22T21:34:34.241Z,1.40
2022-10-22T21:37:02.925Z,1.15
2022-10-22T21:39:31.094Z,1.30
2022-10-22T21:41:57.411Z,0.80
2022-10-22T21:44:23.827Z,1.20
2022-10-22T21:46:50.174Z,1.30
2022-10-22T21:49:16.480Z,1.08
2022-10-22T21:51:43.478Z,1.00
2022-10-22T21:54:09.897Z,1.13
2022-10-22T21:56:36.400Z,1.02
2022-10-22T21:59:04.021Z,1.33
2022-10-22T22:01:30.688Z,1.13
2022-10-22T22:03:57.575Z,1.10
2022-10-22T22:06:28.277Z,1.15
2022-10-22T22:08:57.351Z,1.25
2022-10-22T22:11:26.693Z,1.10
2022-10-22T22:13:55.838Z,1.40
2022-10-22T22:16:28.586Z,1.30
2022-10-22T22:18:57.017Z,1.17
2022-10-22T22:21:23.456Z,1.05
2022-10-22T22:23:50.598Z,1.08
2022-10-22T22:26:25.358Z,1.40
2022-10-22T22:28:55.681Z,1.37
2022-10-22T22:31:30.305Z,1.23
2022-10-22T22:34:01.723Z,1.25
2022-10-22T22:36:28.555Z,1.20
2022-10-22T22:38:56.380Z,1.10
2022-10-22T22:41:23.562Z,1.17
2022-10-22T22:43:50.759Z,1.40
2022-10-22T22:46:17.314Z,1.25
2022-10-22T22:48:43.785Z,1.10
2022-10-22T22:51:10.372Z,1.63
2022-10-22T22:53:36.707Z,1.20
2022-10-22T22:56:08.095Z,2.00
2022-10-22T22:58:35.468Z,1.38
2022-10-22T23:01:21.508Z,1.23
2022-10-22T23:03:52.785Z,1.25
2022-10-22T23:06:19.357Z,1.30
2022-10-22T23:08:49.565Z,1.38
2022-10-22T23:11:16.212Z,1.40
2022-10-22T23:13:43.601Z,1.13
2022-10-22T23:16:17.754Z,1.30
2022-10-22T23:18:46.363Z,1.13
2022-10-22T23:21:23.796Z,1.40
2022-10-22T23:23:52.762Z,1.40
2022-10-22T23:26:25.181Z,1.30
2022-10-22T23:28:51.521Z,1.10
2022-10-22T23:31:20.339Z,1.37
2022-10-22T23:33:46.683Z,1.45
2022-10-22T23:36:13.981Z,1.30
2022-10-22T23:38:41.505Z,1.50
2022-10-22T23:41:08.455Z,1.52
2022-10-22T23:43:38.390Z,1.40
2022-10-22T23:46:06.399Z,1.23
2022-10-22T23:48:33.176Z,1.30
2022-10-22T23:51:10.404Z,1.40
2022-10-22T23:53:37.265Z,1.50
2022-10-22T23:56:09.779Z,1.27
2022-10-22T23:58:36.447Z,1.20
